Time;durP1;ratioP1;P1;durP2;ratioP2;P2;SDS_P1;SDS_P2;PMS_P1;PMS_P2;Temp;Humidity;BMP_temperature;BMP_pressure;BME280_temperature;BME280_humidity;BME280_pressure;Samples;Min_cycle;Max_cycle;Signal;HPM_P1;HPM_P2
2020/12/13 00:01:27;;;;;;;17.80;11.08;;;;;;;7.93;54.40;99767.98;1785307;79;21149;-70
2020/12/13 00:03:54;;;;;;;18.15;11.85;;;;;;;7.93;54.37;99770.63;1786268;79;21162;-70
2020/12/13 00:06:22;;;;;;;17.45;12.00;;;;;;;7.92;54.37;99772.95;1786163;79;21193;-70
2020/12/13 00:08:49;;;;;;;19.12;11.65;;;;;;;7.93;54.35;99779.89;1785362;80;21172;-70
2020/12/13 00:11:17;;;;;;;17.65;11.55;;;;;;;7.92;54.36;99770.31;1785217;79;21188;-70
2020/12/13 00:13:44;;;;;;;17.07;11.70;;;;;;;7.92;54.33;99776.92;1785356;79;21596;-72
2020/12/13 00:16:14;;;;;;;16.55;11.38;;;;;;;7.92;54.28;99776.92;1785900;79;21164;-71
2020/12/13 00:18:43;;;;;;;15.75;10.75;;;;;;;7.92;54.25;99774.74;1785496;79;22250;-70
2020/12/13 00:21:15;;;;;;;16.85;10.13;;;;;;;7.92;54.25;99776.06;1786027;79;21173;-70
2020/12/13 00:23:42;;;;;;;18.17;11.68;;;;;;;7.92;54.22;99785.33;1785344;79;21169;-71
2020/12/13 00:26:10;;;;;;;18.92;12.23;;;;;;;7.91;54.24;99778.39;1767515;79;21171;-70
2020/12/13 00:28:38;;;;;;;19.37;12.30;;;;;;;7.91;54.19;99779.21;1751906;80;21201;-70
2020/12/13 00:31:07;;;;;;;19.30;12.03;;;;;;;7.91;54.17;99779.71;1757690;80;21400;-69
2020/12/13 00:33:35;;;;;;;17.92;12.58;;;;;;;7.91;54.17;99775.74;1757127;80;22089;-68
2020/12/13 00:36:02;;;;;;;20.17;12.75;;;;;;;7.91;54.15;99785.83;1732212;80;21123;-69
2020/12/13 00:38:29;;;;;;;18.17;11.70;;;;;;;7.91;54.13;99775.24;1761792;80;21156;-70
2020/12/13 00:40:56;;;;;;;21.57;12.80;;;;;;;7.91;54.11;99779.21;1756310;80;21153;-70
2020/12/13 00:43:24;;;;;;;16.52;11.12;;;;;;;7.91;54.08;99776.56;1754920;80;22685;-70
2020/12/13 00:45:53;;;;;;;18.00;11.70;;;;;;;7.91;54.02;99774.42;1782189;79;21396;-70
2020/12/13 00:48:21;;;;;;;19.02;11.35;;;;;;;7.91;54.02;99773.09;1782314;80;21105;-71
2020/12/13 00:50:49;;;;;;;18.48;10.93;;;;;;;7.92;54.03;99766.34;1782309;79;21129;-70
2020/12/13 00:53:16;;;;;;;16.87;11.08;;;;;;;7.92;54.01;99768.13;1782234;80;21577;-68
2020/12/13 00:55:47;;;;;;;18.05;11.90;;;;;;;7.90;53.99;99759.05;1783065;79;21336;-70
2020/12/13 00:59:11;;;;;;;19.10;12.07;;;;;;;7.96;53.98;99757.59;1755519;79;28622;-69
2020/12/13 01:01:38;;;;;;;20.82;12.43;;;;;;;7.90;53.93;99763.02;1748713;81;21167;-70
2020/12/13 01:04:07;;;;;;;19.50;11.85;;;;;;;7.91;53.90;99756.73;1790758;78;21545;-69
2020/12/13 01:06:34;;;;;;;18.10;11.68;;;;;;;7.92;53.87;99749.62;1786954;78;21174;-70
2020/12/13 01:09:01;;;;;;;19.65;12.15;;;;;;;7.91;53.87;99750.11;1725854;81;21065;-69
2020/12/13 01:11:32;;;;;;;18.62;11.73;;;;;;;7.92;53.83;99750.47;1727420;81;21127;-70
2020/12/13 01:14:00;;;;;;;20.17;12.10;;;;;;;7.92;53.80;99752.27;1728196;82;21171;-70
2020/12/13 01:16:28;;;;;;;19.20;11.18;;;;;;;7.92;53.80;99754.44;1773315;80;21482;-70
2020/12/13 01:18:57;;;;;;;18.12;11.28;;;;;;;7.93;53.79;99756.59;1729917;82;21168;-70
2020/12/13 01:21:25;;;;;;;18.00;10.95;;;;;;;7.93;53.72;99753.44;1736439;82;21111;-70
2020/12/13 01:23:55;;;;;;;15.72;10.75;;;;;;;7.93;53.76;99748.65;1731660;82;21169;-70
2020/12/13 01:26:24;;;;;;;16.67;10.87;;;;;;;7.92;53.72;99745.18;1733423;82;21142;-70
2020/12/13 01:28:52;;;;;;;16.93;11.90;;;;;;;7.93;53.69;99746.83;1733462;82;21203;-68
2020/12/13 01:31:20;;;;;;;19.30;11.97;;;;;;;7.93;53.70;99753.94;1736460;82;21165;-72
2020/12/13 01:33:50;;;;;;;17.35;11.20;;;;;;;7.93;53.68;99746.00;1733236;82;21645;-70
2020/12/13 01:36:19;;;;;;;17.20;12.18;;;;;;;7.93;53.60;99740.72;1725988;82;21633;-71
2020/12/13 01:38:47;;;;;;;18.55;12.15;;;;;;;7.93;53.63;99738.07;1736168;82;21225;-70
2020/12/13 01:41:16;;;;;;;18.48;11.38;;;;;;;7.92;53.63;99737.24;1719372;82;21647;-70
2020/12/13 01:43:59;;;;;;;19.15;12.07;;;;;;;7.93;53.62;99735.42;1733540;82;21712;-72
2020/12/13 01:46:27;;;;;;;;;;;;;;;7.93;53.60;99738.07;1738967;82;21139;-70
2020/12/13 01:49:00;;;;;;;16.73;11.18;;;;;;;7.91;53.57;99733.42;1736482;82;20269;-73
2020/12/13 01:54:14;;;;;;;19.42;11.97;;;;;;;7.84;53.70;99738.00;1736635;82;21392;-69
2020/12/13 01:56:48;;;;;;;15.95;11.45;;;;;;;7.84;53.68;99735.35;1736436;82;21228;-70
2020/12/13 01:59:16;;;;;;;16.23;10.45;;;;;;;7.85;53.66;99734.85;1716690;82;21193;-71
2020/12/13 02:01:48;;;;;;;17.40;11.08;;;;;;;7.86;53.62;99736.50;1734356;82;21146;-69
2020/12/13 02:04:21;;;;;;;18.12;10.60;;;;;;;7.85;53.64;99731.70;1733635;82;21598;-71
2020/12/13 02:06:52;;;;;;;13.60;9.95;;;;;;;7.86;53.61;99729.42;1739009;82;22305;-71
2020/12/13 02:09:23;;;;;;;15.10;10.63;;;;;;;7.86;53.56;99729.89;1738455;82;21228;-70
2020/12/13 02:11:52;;;;;;;;;;;;;;;7.85;53.56;99725.09;1675399;85;21592;-68
2020/12/13 02:14:21;;;;;;;15.13;10.43;;;;;;;7.81;53.55;99721.59;1726237;82;20269;-69
2020/12/13 02:16:49;;;;;;;15.00;10.03;;;;;;;7.79;53.66;99728.84;1715038;82;21628;-70
2020/12/13 02:19:16;;;;;;;15.25;10.48;;;;;;;7.81;53.64;99746.72;1719370;82;21386;-68
2020/12/13 02:21:48;;;;;;;15.53;10.50;;;;;;;7.83;53.60;99740.78;1734180;82;21226;-68
2020/12/13 02:24:16;;;;;;;14.75;10.35;;;;;;;7.83;53.56;99738.97;1733214;82;21192;-69
2020/12/13 02:26:44;;;;;;;15.13;9.88;;;;;;;7.85;53.51;99732.20;1730903;82;21134;-69
2020/12/13 02:29:12;;;;;;;18.10;11.53;;;;;;;7.86;53.52;99736.50;1733364;82;21202;-69
2020/12/13 02:31:40;;;;;;;15.10;9.80;;;;;;;7.87;53.48;99726.27;1730615;82;21368;-69
2020/12/13 02:34:07;;;;;;;15.35;11.60;;;;;;;7.87;53.46;99730.24;1738276;82;21192;-70
2020/12/13 02:36:35;;;;;;;13.28;9.80;;;;;;;7.89;53.43;99738.86;1677963;85;21198;-69
2020/12/13 02:39:05;;;;;;;14.63;10.45;;;;;;;7.88;53.43;99746.47;1707406;82;21163;-70
2020/12/13 02:41:33;;;;;;;14.10;9.75;;;;;;;7.89;53.38;99738.86;1705902;84;21125;-70
2020/12/13 02:44:02;;;;;;;14.10;9.38;;;;;;;7.89;53.36;99732.24;1735925;82;21296;-70
2020/12/13 02:46:29;;;;;;;15.80;10.48;;;;;;;7.88;53.32;99725.30;1738142;82;21337;-69
2020/12/13 02:48:57;;;;;;;12.45;8.60;;;;;;;7.90;53.29;99725.13;1733329;82;21118;-69
2020/12/13 02:51:24;;;;;;;13.10;10.50;;;;;;;7.90;53.27;99729.95;1730881;82;21197;-69
2020/12/13 02:53:52;;;;;;;12.75;9.35;;;;;;;7.91;53.24;99730.78;1738145;82;21187;-70
2020/12/13 02:56:20;;;;;;;12.98;9.45;;;;;;;7.92;53.24;99731.95;1738285;82;21388;-70
2020/12/13 02:58:47;;;;;;;13.18;9.30;;;;;;;7.92;53.22;99731.09;1719540;82;21138;-71
2020/12/13 03:01:14;;;;;;;14.23;9.63;;;;;;;7.93;53.20;99730.95;1721161;83;21144;-70
2020/12/13 03:03:41;;;;;;;14.13;9.95;;;;;;;7.93;53.18;99732.78;1721294;83;21189;-70
2020/12/13 03:06:09;;;;;;;14.28;9.38;;;;;;;7.93;53.18;99732.28;1723853;83;21162;-68
2020/12/13 03:08:36;;;;;;;12.18;9.03;;;;;;;7.93;53.15;99734.92;1727026;82;21723;-69
2020/12/13 03:11:04;;;;;;;12.85;9.88;;;;;;;7.93;53.13;99734.92;1738128;82;21602;-68
2020/12/13 03:13:31;;;;;;;12.90;10.00;;;;;;;7.93;53.16;99732.78;1739702;82;21205;-68
2020/12/13 03:15:58;;;;;;;11.18;8.53;;;;;;;7.94;53.13;99743.22;1740117;81;21170;-68
2020/12/13 03:18:26;;;;;;;14.90;9.65;;;;;;;7.94;53.09;99738.39;1739369;81;21127;-69
2020/12/13 03:20:53;;;;;;;11.95;9.18;;;;;;;7.94;53.08;99737.92;1739446;82;21336;-70
2020/12/13 03:23:21;;;;;;;12.55;8.78;;;;;;;7.94;53.05;99737.92;1730466;81;21140;-70
2020/12/13 03:25:49;;;;;;;12.88;9.53;;;;;;;7.94;53.05;99735.75;1739540;82;21179;-69
2020/12/13 03:28:16;;;;;;;11.75;9.08;;;;;;;7.94;53.04;99740.57;1725304;82;21153;-68
2020/12/13 03:30:44;;;;;;;13.85;9.68;;;;;;;7.96;53.06;99739.07;1739697;82;21167;-68
2020/12/13 03:33:11;;;;;;;13.62;8.93;;;;;;;7.96;53.03;99731.13;1739596;82;21354;-68
2020/12/13 03:35:38;;;;;;;12.35;9.28;;;;;;;7.90;53.01;99720.70;1739654;82;21658;-69
2020/12/13 03:38:06;;;;;;;11.83;8.15;;;;;;;7.97;53.00;99735.45;1740092;81;21179;-67
2020/12/13 03:40:33;;;;;;;12.23;8.58;;;;;;;7.96;52.97;99733.31;1739648;82;21904;-69
2020/12/13 03:43:00;;;;;;;10.70;8.60;;;;;;;7.97;52.96;99728.84;1739631;82;21155;-68
2020/12/13 03:45:27;;;;;;;12.25;9.20;;;;;;;7.97;52.97;99723.55;1738105;82;21443;-68
2020/12/13 03:47:54;;;;;;;13.25;8.30;;;;;;;7.97;52.96;99722.23;1735252;81;21634;-69
2020/12/13 03:50:22;;;;;;;11.65;8.85;;;;;;;7.96;52.95;99717.44;1739565;82;21546;-69
2020/12/13 03:52:50;;;;;;;10.00;7.92;;;;;;;7.96;52.94;99710.83;1739603;82;21174;-69
2020/12/13 03:55:17;;;;;;;10.05;7.45;;;;;;;7.97;52.92;99712.47;1739577;82;21159;-69
2020/12/13 03:57:44;;;;;;;13.48;8.78;;;;;;;7.97;52.92;99709.00;1739611;82;21407;-70
2020/12/13 04:00:11;;;;;;;11.95;9.25;;;;;;;7.98;52.92;99708.03;1725402;82;21235;-71
2020/12/13 04:02:39;;;;;;;11.80;8.80;;;;;;;7.98;52.92;99705.39;1735697;81;21127;-70
2020/12/13 04:05:06;;;;;;;13.10;8.58;;;;;;;7.99;52.90;99717.12;1733752;81;21138;-71
2020/12/13 04:07:33;;;;;;;11.40;8.60;;;;;;;7.99;52.90;99725.55;1725536;83;21147;-71
2020/12/13 04:10:00;;;;;;;12.03;8.28;;;;;;;7.98;52.87;99725.23;1725152;83;21669;-71
2020/12/13 04:12:28;;;;;;;10.60;8.23;;;;;;;7.98;52.86;99728.70;1725435;83;21166;-72
2020/12/13 04:14:55;;;;;;;12.47;9.08;;;;;;;8.00;52.88;99732.52;1725466;83;21082;-71
2020/12/13 04:17:23;;;;;;;11.48;8.70;;;;;;;8.00;52.85;99729.88;1725438;83;21139;-71
2020/12/13 04:19:50;;;;;;;12.10;8.00;;;;;;;8.00;52.85;99734.67;1724414;83;21126;-72
2020/12/13 04:22:17;;;;;;;11.22;8.55;;;;;;;8.00;52.84;99733.34;1725446;83;21814;-70
2020/12/13 04:24:46;;;;;;;11.57;7.90;;;;;;;8.00;52.82;99735.17;1724988;83;21167;-69
2020/12/13 04:27:13;;;;;;;12.23;8.00;;;;;;;8.01;52.81;99746.89;1725470;83;21174;-68
2020/12/13 04:29:41;;;;;;;11.28;8.35;;;;;;;8.01;52.79;99745.57;1725342;83;21210;-68
2020/12/13 04:32:10;;;;;;;10.63;7.90;;;;;;;8.02;52.76;99741.96;1725477;82;21178;-68
2020/12/13 04:34:37;;;;;;;11.93;8.65;;;;;;;8.01;52.75;99737.63;1725438;83;21434;-69
2020/12/13 04:37:05;;;;;;;11.85;8.58;;;;;;;8.01;52.78;99736.31;1719051;82;21164;-69
2020/12/13 04:39:34;;;;;;;11.53;8.05;;;;;;;8.03;52.74;99746.75;1721846;82;21145;-68
2020/12/13 04:42:02;;;;;;;11.83;9.23;;;;;;;8.03;52.75;99735.67;1731095;82;21340;-69
2020/12/13 04:44:30;;;;;;;12.25;9.10;;;;;;;7.99;52.77;99718.44;1731240;82;21184;-70
2020/12/13 04:47:04;;;;;;;12.28;8.80;;;;;;;8.04;52.74;99732.05;1731001;82;21218;-71
2020/12/13 04:49:34;;;;;;;14.07;9.63;;;;;;;8.04;52.71;99728.08;1731236;82;21643;-70
2020/12/13 04:52:03;;;;;;;13.22;9.08;;;;;;;8.04;52.70;99724.12;1724265;82;21613;-72
2020/12/13 04:54:30;;;;;;;13.00;8.83;;;;;;;8.05;52.71;99730.23;1730834;82;21190;-72
2020/12/13 04:56:58;;;;;;;12.50;9.33;;;;;;;8.05;52.67;99735.52;1717966;82;21162;-73
2020/12/13 04:59:27;;;;;;;13.55;8.20;;;;;;;8.05;52.69;99734.20;1779209;80;22226;-73
2020/12/13 05:01:54;;;;;;;13.05;8.93;;;;;;;8.05;52.72;99739.02;1779057;80;21155;-71
2020/12/13 05:04:22;;;;;;;13.05;8.98;;;;;;;8.07;52.72;99737.52;1779130;80;21151;-72
2020/12/13 05:06:50;;;;;;;12.15;8.25;;;;;;;8.07;52.72;99738.84;1779090;80;21150;-71
2020/12/13 05:09:18;;;;;;;12.90;8.95;;;;;;;8.07;52.67;99736.20;1778777;80;21198;-75
2020/12/13 05:11:46;;;;;;;12.07;9.65;;;;;;;8.07;52.66;99729.11;1708981;80;21370;-71
2020/12/13 05:14:13;;;;;;;10.45;8.23;;;;;;;8.08;52.66;99735.23;1778686;80;21202;-74
2020/12/13 05:16:41;;;;;;;11.30;8.25;;;;;;;8.08;52.66;99728.11;1779204;80;21151;-73
2020/12/13 05:19:12;;;;;;;12.87;8.63;;;;;;;8.09;52.64;99734.23;1779072;80;21551;-74
2020/12/13 05:21:40;;;;;;;12.13;8.85;;;;;;;8.11;52.60;99734.09;1757767;80;21627;-72
2020/12/13 05:24:07;;;;;;;11.88;9.03;;;;;;;8.11;52.61;99735.41;1730868;80;21213;-73
2020/12/13 05:26:34;;;;;;;10.15;8.13;;;;;;;8.12;52.61;99729.15;1769881;80;21103;-73
2020/12/13 05:29:04;;;;;;;11.88;8.93;;;;;;;8.12;52.60;99731.80;1779188;80;21139;-73
2020/12/13 05:31:34;;;;;;;8.95;7.33;;;;;;;8.12;52.60;99729.15;1753145;80;21155;-72
2020/12/13 05:34:05;;;;;;;11.60;8.83;;;;;;;8.12;52.60;99731.80;1757018;80;21167;-72
2020/12/13 05:36:35;;;;;;;9.98;8.00;;;;;;;8.13;52.56;99730.80;1779112;80;21382;-71
2020/12/13 05:39:01;;;;;;;12.30;8.13;;;;;;;8.12;52.58;99731.30;1773961;80;22209;-70
2020/12/13 05:41:30;;;;;;;9.55;7.65;;;;;;;8.13;52.56;99735.62;1776610;80;21127;-71
2020/12/13 05:44:06;;;;;;;11.70;8.08;;;;;;;8.13;52.56;99733.44;1778785;80;21174;-70
2020/12/13 05:52:00;;;;;;;11.73;7.97;;;;;;;8.18;52.57;99733.83;1777553;79;28198;-72
2020/12/13 05:54:27;;;;;;;11.70;8.90;;;;;;;8.13;52.55;99729.00;1750427;82;21160;-70
2020/12/13 05:57:01;;;;;;;10.70;7.92;;;;;;;8.14;52.57;99730.65;1760784;80;21201;-70
2020/12/13 05:59:30;;;;;;;10.68;8.25;;;;;;;8.14;52.58;99718.73;1781274;80;21133;-69
2020/12/13 06:02:03;;;;;;;9.90;8.15;;;;;;;8.15;52.57;99724.85;1740450;80;21172;-69
2020/12/13 06:04:33;;;;;;;9.73;7.62;;;;;;;8.15;52.57;99729.68;1765368;80;21153;-71
2020/12/13 06:07:04;;;;;;;10.35;8.28;;;;;;;8.15;52.55;99728.83;1748290;81;21654;-71
2020/12/13 06:09:34;;;;;;;10.78;8.63;;;;;;;8.17;52.55;99733.47;1765445;81;22622;-71
2020/12/13 06:12:07;;;;;;;11.43;8.25;;;;;;;8.17;52.53;99730.35;1763200;81;21178;-72
2020/12/13 06:14:37;;;;;;;10.70;7.95;;;;;;;8.18;52.55;99732.00;1749266;81;21207;-72
2020/12/13 06:17:04;;;;;;;9.85;8.18;;;;;;;8.17;52.52;99734.80;1766490;81;21174;-71
2020/12/13 06:19:33;;;;;;;11.65;8.80;;;;;;;8.18;52.51;99750.52;1746025;81;21182;-72
2020/12/13 06:22:02;;;;;;;9.60;7.83;;;;;;;8.19;52.55;99750.88;1736766;81;21240;-71
2020/12/13 06:24:30;;;;;;;10.72;8.45;;;;;;;8.20;52.51;99750.37;1739698;81;21162;-70
2020/12/13 06:26:58;;;;;;;12.85;9.35;;;;;;;8.19;52.50;99752.20;1765226;81;21200;-71
2020/12/13 06:29:26;;;;;;;11.22;7.67;;;;;;;8.20;52.50;99746.41;1765714;81;21171;-70
2020/12/13 06:31:54;;;;;;;12.63;9.20;;;;;;;8.21;52.48;99749.41;1766671;81;21164;-72
2020/12/13 06:34:22;;;;;;;9.30;7.80;;;;;;;8.21;52.47;99752.05;1764868;81;21460;-71
2020/12/13 06:36:49;;;;;;;10.68;8.73;;;;;;;8.22;52.47;99745.27;1757754;81;21147;-71
2020/12/13 06:39:17;;;;;;;10.55;8.20;;;;;;;8.23;52.47;99739.50;1696127;82;21662;-71
2020/12/13 06:41:47;;;;;;;9.85;8.23;;;;;;;8.24;52.46;99745.12;1764076;81;21597;-71
2020/12/13 06:44:15;;;;;;;10.88;8.40;;;;;;;8.25;52.46;99744.97;1766555;81;21119;-72
2020/12/13 06:46:46;;;;;;;10.63;8.13;;;;;;;8.24;52.46;99740.64;1766196;81;22194;-71
2020/12/13 06:49:18;;;;;;;10.30;7.85;;;;;;;8.26;52.44;99743.97;1766426;81;21621;-71
2020/12/13 06:51:47;;;;;;;10.78;8.18;;;;;;;8.26;52.43;99738.67;1729738;81;21171;-71
2020/12/13 06:54:17;;;;;;;11.30;8.68;;;;;;;8.28;52.43;99746.47;1733914;82;21147;-72
2020/12/13 06:56:46;;;;;;;11.22;8.63;;;;;;;8.27;52.43;99740.85;1732592;82;21187;-72
2020/12/13 06:59:14;;;;;;;10.98;8.73;;;;;;;8.28;52.41;99742.50;1724473;82;21263;-72
2020/12/13 07:01:43;;;;;;;10.55;8.23;;;;;;;8.28;52.40;99740.67;1724398;82;21237;-73
2020/12/13 07:07:15;;;;;;;12.98;11.10;;;;;;;8.55;51.99;99738.92;1767236;79;28003;-73
2020/12/13 07:09:38;;;;;;;11.00;9.08;;;;;;;8.55;51.99;99738.92;1763786;80;21181;-73
2020/12/13 07:12:06;;;;;;;10.60;8.10;;;;;;;8.79;51.49;99747.53;1723617;80;21220;-72
2020/12/13 07:14:36;;;;;;;12.78;9.20;;;;;;;8.72;51.54;99753.61;1766629;80;21202;-72
2020/12/13 07:17:08;;;;;;;10.95;8.90;;;;;;;8.65;51.64;99752.92;1708123;80;21127;-73
2020/12/13 07:19:40;;;;;;;11.22;8.60;;;;;;;8.62;51.69;99743.13;1793925;79;21170;-71
2020/12/13 07:22:11;;;;;;;12.90;8.75;;;;;;;8.57;51.75;99752.84;1783616;79;21542;-71
2020/12/13 07:24:42;;;;;;;12.13;9.20;;;;;;;8.56;51.79;99747.72;1759403;80;21387;-72
2020/12/13 07:27:10;;;;;;;11.90;9.78;;;;;;;8.54;51.80;99743.08;1769862;80;22131;-72
2020/12/13 07:29:37;;;;;;;13.15;10.32;;;;;;;8.52;51.88;99745.88;1745896;80;21165;-73
2020/12/13 07:32:05;;;;;;;12.58;9.43;;;;;;;8.51;51.90;99743.38;1779295;79;21177;-71
2020/12/13 07:34:33;;;;;;;11.30;8.70;;;;;;;8.50;51.92;99753.61;1767375;79;21141;-71
2020/12/13 07:37:00;;;;;;;12.85;9.40;;;;;;;8.49;51.94;99755.44;1785767;79;21489;-70
2020/12/13 07:39:29;;;;;;;14.05;9.85;;;;;;;8.49;51.99;99761.23;1786291;79;21167;-71
2020/12/13 07:41:57;;;;;;;12.58;9.03;;;;;;;8.48;51.99;99760.41;1774562;79;21601;-72
2020/12/13 07:44:32;;;;;;;12.40;9.65;;;;;;;8.48;52.00;99750.28;1786013;79;21143;-71
2020/12/13 07:46:59;;;;;;;13.88;9.83;;;;;;;8.46;52.03;99755.26;1766389;79;21144;-73
2020/12/13 07:49:27;;;;;;;12.10;9.48;;;;;;;8.46;52.03;99761.88;1765435;79;21439;-72
2020/12/13 07:51:56;;;;;;;14.55;9.30;;;;;;;8.46;52.02;99763.20;1772557;79;21139;-71
2020/12/13 07:54:30;;;;;;;12.18;9.75;;;;;;;8.47;52.04;99769.32;1780829;79;21365;-72
2020/12/13 07:57:02;;;;;;;13.90;10.00;;;;;;;8.47;52.08;99771.97;1783845;79;21196;-72
2020/12/13 07:59:29;;;;;;;13.43;9.98;;;;;;;8.45;52.06;99777.41;1776889;79;21172;-72
2020/12/13 08:01:58;;;;;;;13.62;10.98;;;;;;;8.46;52.10;99776.94;1771827;79;22592;-71
2020/12/13 08:04:35;;;;;;;13.50;9.78;;;;;;;8.46;52.06;99777.77;1782870;79;21179;-70
2020/12/13 08:07:12;;;;;;;13.93;10.08;;;;;;;8.46;52.06;99775.62;1711605;81;21134;-71
2020/12/13 08:09:44;;;;;;;13.05;10.23;;;;;;;8.48;52.07;99783.38;1749250;81;21179;-70
2020/12/13 08:12:12;;;;;;;12.93;9.88;;;;;;;8.46;52.10;99784.88;1756882;81;21342;-69
2020/12/13 08:14:40;;;;;;;13.58;10.23;;;;;;;8.45;52.13;99796.44;1762624;81;21374;-72
2020/12/13 08:17:07;;;;;;;12.95;9.58;;;;;;;8.46;52.14;99791.50;1749513;81;21191;-73
2020/12/13 08:19:44;;;;;;;16.48;11.43;;;;;;;8.46;52.14;99783.06;1731827;81;21118;-72
2020/12/13 08:22:21;;;;;;;14.43;10.95;;;;;;;8.46;52.12;99784.38;1767083;80;21155;-74
2020/12/13 08:24:54;;;;;;;14.05;10.03;;;;;;;8.47;52.10;99781.23;1730518;81;21115;-72
2020/12/13 08:27:21;;;;;;;15.77;11.30;;;;;;;8.46;52.13;99781.73;1753973;81;21376;-73
2020/12/13 08:29:49;;;;;;;14.28;11.05;;;;;;;8.46;52.13;99780.41;1749149;81;21171;-73
2020/12/13 08:32:22;;;;;;;16.42;11.35;;;;;;;8.46;52.17;99780.41;1747598;81;21163;-73
2020/12/13 08:34:50;;;;;;;13.93;10.95;;;;;;;8.47;52.17;99781.23;1736597;81;21187;-72
2020/12/13 08:37:23;;;;;;;13.72;10.32;;;;;;;8.48;52.12;99775.44;1731791;82;21206;-73
2020/12/13 08:39:51;;;;;;;14.73;10.30;;;;;;;8.49;52.15;99777.11;1752785;80;21341;-72
2020/12/13 08:42:23;;;;;;;12.82;10.38;;;;;;;8.49;52.13;99778.44;1723385;81;21205;-71
2020/12/13 08:44:51;;;;;;;14.93;10.63;;;;;;;8.49;52.13;99775.30;1726042;81;21608;-72
2020/12/13 08:47:19;;;;;;;14.00;9.88;;;;;;;8.50;52.14;99778.77;1753519;81;21652;-71
2020/12/13 08:49:49;;;;;;;15.38;10.35;;;;;;;8.49;52.11;99776.61;1758856;80;21156;-72
2020/12/13 08:52:24;;;;;;;15.90;11.93;;;;;;;8.51;52.08;99767.20;1733702;81;21385;-71
2020/12/13 08:54:55;;;;;;;16.48;11.88;;;;;;;8.51;52.13;99768.52;1735553;81;21139;-71
2020/12/13 09:00:22;;;;;;;14.58;10.93;;;;;;;8.55;52.10;99752.16;1785766;79;28994;-70
2020/12/13 09:03:00;;;;;;;14.10;11.10;;;;;;;8.51;52.08;99759.26;1753856;80;21188;-71
2020/12/13 09:05:33;;;;;;;14.58;10.55;;;;;;;8.52;52.10;99764.87;1753894;80;21386;-70
2020/12/13 09:08:00;;;;;;;15.23;11.70;;;;;;;8.51;52.11;99752.64;1781582;80;21172;-70
2020/12/13 09:10:32;;;;;;;15.35;11.75;;;;;;;8.52;52.12;99756.94;1791076;79;21180;-71
2020/12/13 09:13:06;;;;;;;14.30;11.53;;;;;;;8.52;52.12;99751.17;1797783;79;21212;-70
2020/12/13 09:15:33;;;;;;;13.58;10.75;;;;;;;8.52;52.11;99752.48;1757738;80;21148;-69
2020/12/13 09:18:02;;;;;;;14.20;10.13;;;;;;;8.53;52.13;99755.46;1799714;79;21390;-71
2020/12/13 09:20:31;;;;;;;13.83;11.05;;;;;;;8.53;52.12;99754.64;1783512;80;21135;-70
2020/12/13 09:23:06;;;;;;;14.38;11.18;;;;;;;8.54;52.08;99747.05;1760514;80;21593;-69
2020/12/13 09:25:42;;;;;;;15.10;10.90;;;;;;;8.54;52.08;99741.75;1792041;78;21332;-68
2020/12/13 09:28:11;;;;;;;13.03;10.15;;;;;;;8.54;52.08;99735.95;1777117;80;21626;-68
2020/12/13 09:30:39;;;;;;;14.45;11.57;;;;;;;8.54;52.12;99740.42;1768537;80;21401;-70
2020/12/13 09:33:06;;;;;;;13.30;10.78;;;;;;;8.55;52.10;99742.07;1780304;80;21191;-71
2020/12/13 09:35:34;;;;;;;14.40;10.93;;;;;;;8.54;52.10;99735.13;1785102;80;21182;-70
2020/12/13 09:38:04;;;;;;;15.98;11.45;;;;;;;8.55;52.09;99733.63;1788534;79;21152;-70
2020/12/13 09:40:32;;;;;;;15.13;11.50;;;;;;;8.56;52.08;99732.66;1754014;80;21163;-70
2020/12/13 09:43:00;;;;;;;15.23;11.20;;;;;;;8.56;52.07;99726.54;1763921;80;21370;-69
2020/12/13 09:45:28;;;;;;;14.33;10.98;;;;;;;8.57;52.09;99729.50;1772782;80;21192;-69
2020/12/13 09:50:32;;;;;;;15.88;11.70;;;;;;;8.61;52.06;99722.41;1778013;79;28795;-71
2020/12/13 09:53:00;;;;;;;14.28;10.48;;;;;;;8.58;52.03;99720.59;1749056;82;21208;-68
2020/12/13 09:55:27;;;;;;;13.98;11.15;;;;;;;8.59;52.06;99723.56;1742330;82;21511;-69
2020/12/13 09:57:54;;;;;;;14.90;11.15;;;;;;;8.59;52.04;99714.29;1748421;82;21042;-70
2020/12/13 10:00:22;;;;;;;13.45;11.70;;;;;;;8.59;52.08;99716.94;1749292;82;21196;-69
2020/12/13 10:02:50;;;;;;;15.32;11.83;;;;;;;8.59;52.02;99712.47;1780882;80;21169;-68
2020/12/13 10:05:26;;;;;;;16.93;12.10;;;;;;;8.61;52.05;99707.02;1780932;80;21161;-68
2020/12/13 10:10:36;;;;;;;15.38;11.60;;;;;;;8.62;52.00;99712.67;1781000;80;21149;-69
2020/12/13 10:13:04;;;;;;;15.60;12.23;;;;;;;8.62;51.99;99704.72;1780884;80;21657;-70
2020/12/13 10:15:31;;;;;;;17.73;11.57;;;;;;;8.62;52.02;99703.41;1748484;80;21149;-70
2020/12/13 10:17:58;;;;;;;15.43;11.25;;;;;;;8.62;52.03;99700.25;1730070;82;21206;-70
2020/12/13 10:20:26;;;;;;;15.48;12.00;;;;;;;8.62;52.01;99708.20;1727665;82;21370;-69
2020/12/13 10:22:53;;;;;;;14.70;11.35;;;;;;;8.63;52.03;99706.37;1735361;82;21760;-68
2020/12/13 10:25:22;;;;;;;15.48;11.40;;;;;;;8.63;51.98;99698.42;1736065;82;21133;-69
2020/12/13 10:27:49;;;;;;;17.25;12.03;;;;;;;8.65;51.99;99705.72;1735059;82;21181;-71
2020/12/13 10:30:16;;;;;;;15.58;11.95;;;;;;;8.65;51.98;99697.30;1735769;82;21170;-70
2020/12/13 10:32:44;;;;;;;15.03;11.30;;;;;;;8.66;51.98;99702.92;1736272;82;21450;-69
2020/12/13 10:35:12;;;;;;;16.00;11.70;;;;;;;8.66;51.97;99694.16;1716480;82;21632;-71
2020/12/13 10:37:39;;;;;;;16.42;11.78;;;;;;;8.66;51.93;99700.27;1736271;82;21183;-68
2020/12/13 10:40:07;;;;;;;16.40;12.47;;;;;;;8.66;51.96;99693.65;1727792;82;21201;-70
2020/12/13 10:42:34;;;;;;;14.75;12.20;;;;;;;8.68;51.94;99695.33;1707323;82;21647;-69
2020/12/13 10:45:01;;;;;;;15.55;11.48;;;;;;;8.68;51.93;99693.50;1732068;82;21665;-69
2020/12/13 10:47:28;;;;;;;14.55;11.97;;;;;;;8.69;51.93;99693.82;1722767;81;21179;-70
2020/12/13 10:49:56;;;;;;;15.85;12.63;;;;;;;8.69;51.93;99695.14;1729418;81;21611;-70
2020/12/13 10:52:23;;;;;;;17.73;12.75;;;;;;;8.69;51.92;99696.97;1723220;82;21103;-69
2020/12/13 10:54:50;;;;;;;16.60;12.88;;;;;;;8.70;51.92;99698.14;1727090;82;21171;-70
2020/12/13 10:57:17;;;;;;;15.38;12.10;;;;;;;8.69;51.92;99691.17;1727615;82;21390;-68
2020/12/13 10:59:46;;;;;;;14.60;12.07;;;;;;;8.69;51.90;99696.47;1721540;82;21154;-67
2020/12/13 11:02:14;;;;;;;16.00;12.05;;;;;;;8.71;51.90;99698.50;1734059;82;21159;-69
2020/12/13 11:04:41;;;;;;;16.10;12.45;;;;;;;8.73;52.23;99698.31;1719923;82;21219;-68
2020/12/13 11:07:09;;;;;;;16.17;12.85;;;;;;;8.74;52.51;99697.34;1708679;82;21162;-68
2020/12/13 11:09:37;;;;;;;19.15;12.90;;;;;;;8.73;52.60;99693.88;1709910;82;21827;-69
2020/12/13 11:12:04;;;;;;;16.65;12.15;;;;;;;8.75;52.62;99697.66;1712225;81;21174;-69
2020/12/13 11:14:31;;;;;;;17.82;13.03;;;;;;;8.74;52.57;99690.22;1709480;82;21166;-67
2020/12/13 11:16:59;;;;;;;17.85;12.55;;;;;;;8.74;52.53;99697.34;1711935;82;21178;-68
2020/12/13 11:19:27;;;;;;;16.12;12.05;;;;;;;8.74;52.52;99690.72;1709503;82;21146;-66
2020/12/13 11:21:54;;;;;;;17.87;12.58;;;;;;;8.74;52.51;99701.31;1745131;80;22239;-69
2020/12/13 11:24:22;;;;;;;18.23;13.45;;;;;;;8.75;52.43;99700.31;1772006;80;21181;-69
2020/12/13 11:26:49;;;;;;;17.87;13.72;;;;;;;8.76;52.39;99698.02;1780461;80;21168;-68
2020/12/13 11:29:16;;;;;;;15.75;11.90;;;;;;;8.76;52.37;99697.51;1778869;80;21145;-67
2020/12/13 11:31:43;;;;;;;18.98;13.80;;;;;;;8.76;52.34;99692.72;1779558;80;21196;-69
2020/12/13 11:34:11;;;;;;;16.75;12.78;;;;;;;8.74;52.28;99695.52;1779870;80;21318;-69
2020/12/13 11:36:38;;;;;;;14.98;11.90;;;;;;;8.75;52.28;99691.89;1780948;80;21134;-69
2020/12/13 11:39:06;;;;;;;14.40;11.88;;;;;;;8.76;52.26;99687.42;1773123;80;21162;-68
2020/12/13 11:41:35;;;;;;;16.75;12.15;;;;;;;8.76;52.23;99689.56;1754677;80;21205;-69
2020/12/13 11:44:03;;;;;;;17.50;12.95;;;;;;;8.76;52.23;99689.56;1749255;80;21142;-69
2020/12/13 11:46:30;;;;;;;15.40;11.68;;;;;;;8.76;52.20;99689.56;1771031;79;21352;-69
2020/12/13 11:48:57;;;;;;;18.00;13.30;;;;;;;8.77;52.19;99691.23;1740217;80;21186;-68
2020/12/13 11:51:25;;;;;;;16.40;11.97;;;;;;;8.77;52.18;99684.61;1769132;80;21200;-68
2020/12/13 11:53:52;;;;;;;15.75;12.33;;;;;;;8.78;52.15;99690.73;1774501;80;21101;-69
2020/12/13 11:56:21;;;;;;;14.37;11.23;;;;;;;8.78;52.17;99687.59;1759188;80;21167;-68